Hastings, NE (68901)

10:48 PM CDT on April 26, 2017 (GMT -0500)
West 12th Street | | Change Station
Active Advisory: Frost Advisory

Elev 1934 ft 40.60 °N, 98.40 °W | Updated 4 seconds ago

Clear
Clear
33.5 °F
Feels Like 34 °F
N
0.0
Wind Variable Wind from NW
Gusts 0.0 mph

Today
High -- | Low -- °F
--% Chance of Precip.
Yesterday
High -- | Low -- °F
Precip. -- in
Pressure 29.77 in
Visibility 10.0 miles
Clouds Clear
Windchill 34 °F
Dew Point 30 °F
Humidity 88%
Rainfall 0.00 in
Snow Depth Not available.
6:38 AM 8:24 PM
New Moon, 1% visible
METAR KHSI 270253Z AUTO 04004KT 10SM CLR 02/M02 A2974 RMK AO2 SLP081 T00171022 53010
Pressure 29.77 in
Visibility 10.0 miles
Clouds Clear
Windchill 34 °F
Dew Point 30 °F
Humidity 88%
Rainfall 0.00 in
Snow Depth Not available.
6:38 AM 8:24 PM
New Moon, 1% visible
METAR KHSI 270253Z AUTO 04004KT 10SM CLR 02/M02 A2974 RMK AO2 SLP081 T00171022 53010

Get Your Daily Forecast Email!

Thanks for signing up!

Be on the lookout for a verification email in your inbox.

You'll start receiving severe weather alerts in your inbox..

×

10-Day Weather Forecast

Almanac

Astronomy

Apr. 26, 2017 Rise Set
Actual Time
Civil Twilight
Nautical Twilight
Astronomical Twilight
Moon
Length of Visible Light
Length of Day
Tomorrow will be .
, % of the Moon is Illuminated

Today's Extremes

State Highs State Lows

Community

WunderPhotos

WunderBlog® & News

Nearby

Air Quality

  Air Quality AQ Index Pollutant
Not available.

Snow Depth

Station Depth Elevation

Earthquake Activity

City Distance Mag. Time & Date
Minimum magnitude displayed is 2.5.

Coastal Water Temperatures

Place Temperature

Stations

Nearby Weather Stations

Station Location Temp. Windchill Dew Point Humidity Wind Precip. Elev Updated Type
                   

Watches & Warnings

Frost Advisory
Issued: 10:29 PM CDT Apr. 26, 2017 – National Weather Service

... Frost advisory remains in effect until 9 am CDT Thursday...

* temperatures... overnight low temperatures will fall to between
28 and 35 degrees in most areas from around Interstate 80 south
into north central Kansas.

* Impacts... sensitive outdoor vegetation may be damaged or
killed if left unprotected.

* Uncertainty... despite the cold temperatures, it is possible
some areas may not see much frost, especially in southwestern
counties which could be more prone to clouds increasing from
the west towards dawn. Overall, the most favored area for
widespread frost appears to focus northeast of a line from
Kearney to Hebron Nebraska.

Precautionary/preparedness actions...

A frost advisory means that widespread frost is expected.
Sensitive outdoor plants may be killed if left uncovered.